Time;durP1;ratioP1;P1;durP2;ratioP2;P2;SDS_P1;SDS_P2;PMS_P1;PMS_P2;Temp;Humidity;BMP_temperature;BMP_pressure;BME280_temperature;BME280_humidity;BME280_pressure;Samples;Min_cycle;Max_cycle;Signal;HPM_P1;HPM_P2
2023/02/26 00:01:38;;;;;;;14.18;3.15;;;3.70;99.90;;;;;;4921584;29;20147;-57
2023/02/26 00:04:06;;;;;;;27.23;3.05;;;3.60;99.90;;;;;;4924043;29;20225;-58
2023/02/26 00:06:36;;;;;;;16.30;2.55;;;3.60;99.90;;;;;;4946577;28;20047;-56
2023/02/26 00:09:03;;;;;;;14.23;2.00;;;3.60;99.90;;;;;;4945637;28;20055;-54
2023/02/26 00:11:31;;;;;;;10.57;2.00;;;3.60;99.90;;;;;;4939332;28;20547;-57
2023/02/26 00:13:58;;;;;;;8.05;2.15;;;3.50;99.90;;;;;;4935150;29;20054;-59
2023/02/26 00:16:31;;;;;;;10.75;2.38;;;3.50;99.90;;;;;;4941505;28;20047;-57
2023/02/26 00:19:00;;;;;;;10.27;2.50;;;3.50;99.90;;;;;;4941552;29;20887;-59
2023/02/26 00:21:28;;;;;;;13.43;2.60;;;3.50;99.90;;;;;;4597961;28;10000139;-59
2023/02/26 00:23:55;;;;;;;10.93;2.38;;;3.40;99.90;;;;;;4924463;28;20258;-59
2023/02/26 00:26:22;;;;;;;7.70;1.92;;;3.40;99.90;;;;;;4925720;29;20042;-59
2023/02/26 00:28:52;;;;;;;15.00;2.22;;;3.40;99.90;;;;;;4927405;29;20145;-59
2023/02/26 00:31:23;;;;;;;13.27;3.13;;;3.40;99.90;;;;;;4939794;28;20051;-60
2023/02/26 00:33:54;;;;;;;13.20;3.78;;;3.40;99.90;;;;;;4942452;29;20047;-60
2023/02/26 00:36:22;;;;;;;13.95;2.25;;;3.40;99.90;;;;;;4940873;28;20039;-59
2023/02/26 00:39:28;;;;;;;11.43;2.25;;;3.30;99.90;;;;;;4941944;29;20226;-58
2023/02/26 00:41:55;;;;;;;11.00;2.10;;;3.30;99.90;;;;;;4938567;28;20059;-57
2023/02/26 00:44:22;;;;;;;19.67;3.42;;;3.30;99.90;;;;;;4941156;29;20058;-59
2023/02/26 00:47:17;;;;;;;16.05;1.90;;;3.30;99.90;;;;;;4957134;28;20043;-59
2023/02/26 00:49:54;;;;;;;12.23;1.67;;;3.30;99.90;;;;;;4912503;29;20105;-59
2023/02/26 00:52:39;;;;;;;15.10;1.77;;;3.30;99.90;;;;;;4929163;28;20051;-58
2023/02/26 00:55:06;;;;;;;10.43;1.55;;;3.30;99.90;;;;;;4946182;28;20062;-61
2023/02/26 00:57:33;;;;;;;14.30;2.60;;;3.30;99.90;;;;;;4964487;28;20077;-56
2023/02/26 00:59:59;;;;;;;12.02;2.80;;;3.30;99.90;;;;;;4948391;29;20051;-58
2023/02/26 01:02:26;;;;;;;13.80;3.05;;;3.20;99.90;;;;;;4948873;28;20178;-62
2023/02/26 01:04:55;;;;;;;6.70;1.85;;;3.20;99.90;;;;;;4948182;29;20471;-59
2023/02/26 01:07:24;;;;;;;20.05;3.33;;;3.20;99.90;;;;;;4949315;28;20078;-60
2023/02/26 01:09:52;;;;;;;15.63;2.20;;;3.20;99.90;;;;;;4945776;29;20474;-58
2023/02/26 01:12:18;;;;;;;19.00;3.28;;;3.20;99.90;;;;;;4929680;29;20062;-60
2023/02/26 01:14:49;;;;;;;20.30;2.85;;;3.10;99.90;;;;;;4942131;29;20051;-59
2023/02/26 01:17:20;;;;;;;14.07;2.40;;;3.10;99.90;;;;;;4948545;28;20573;-60
2023/02/26 01:19:54;;;;;;;12.98;2.28;;;3.10;99.90;;;;;;4928380;29;20344;-59
2023/02/26 01:22:26;;;;;;;9.07;2.65;;;3.10;99.90;;;;;;4920341;29;20143;-55
2023/02/26 01:24:58;;;;;;;14.30;2.83;;;3.00;99.90;;;;;;4916618;29;20550;-59
2023/02/26 01:27:26;;;;;;;14.32;1.90;;;3.00;99.90;;;;;;4930502;29;20047;-57
2023/02/26 01:29:54;;;;;;;12.07;1.92;;;3.00;99.90;;;;;;4931477;29;20048;-59
2023/02/26 01:32:43;;;;;;;18.88;4.25;;;3.00;99.90;;;;;;4947021;28;20139;-59
2023/02/26 01:35:35;;;;;;;14.30;1.67;;;3.00;99.90;;;;;;4924402;29;20051;-59
2023/02/26 01:38:27;;;;;;;8.52;1.88;;;3.10;99.90;;;;;;4929336;29;20499;-58
2023/02/26 01:41:16;;;;;;;12.25;1.50;;;3.00;99.90;;;;;;4926911;28;20043;-60
2023/02/26 01:43:54;;;;;;;6.07;1.95;;;3.00;99.90;;;;;;4928248;29;20051;-59
2023/02/26 01:46:37;;;;;;;9.32;1.88;;;3.00;99.90;;;;;;4939997;28;20047;-59
2023/02/26 01:49:05;;;;;;;14.95;2.30;;;3.00;99.90;;;;;;4931659;29;20058;-58
2023/02/26 01:51:42;;;;;;;5.63;1.23;;;2.90;99.90;;;;;;4946167;28;20503;-57
2023/02/26 01:54:10;;;;;;;15.15;2.55;;;2.90;99.90;;;;;;4941062;29;20062;-59
2023/02/26 01:56:37;;;;;;;10.65;2.38;;;2.90;99.90;;;;;;4939593;28;20497;-59
2023/02/26 01:59:04;;;;;;;9.13;2.35;;;2.80;99.90;;;;;;4928953;29;20050;-58
2023/02/26 02:01:32;;;;;;;10.13;2.03;;;2.80;99.90;;;;;;4957432;28;20537;-59
2023/02/26 02:03:59;;;;;;;8.05;1.55;;;2.80;99.90;;;;;;4922937;29;20499;-57
2023/02/26 02:06:25;;;;;;;10.48;2.17;;;2.80;99.90;;;;;;4936201;28;20506;-60
2023/02/26 02:08:52;;;;;;;13.32;2.22;;;2.70;99.90;;;;;;4922576;29;20073;-57
2023/02/26 02:11:19;;;;;;;9.75;2.35;;;2.70;99.90;;;;;;4946388;28;20059;-59
2023/02/26 02:14:07;;;;;;;13.30;2.05;;;2.70;99.90;;;;;;4945261;29;20050;-58
2023/02/26 02:16:52;;;;;;;14.35;2.10;;;2.70;99.90;;;;;;4941030;28;20085;-58
2023/02/26 02:19:44;;;;;;;15.23;2.33;;;2.70;99.90;;;;;;4946501;29;20622;-59
2023/02/26 02:22:53;;;;;;;5.68;1.90;;;2.70;99.90;;;;;;4944659;28;20056;-59
2023/02/26 02:25:52;;;;;;;14.32;2.38;;;2.70;99.90;;;;;;4876897;29;20053;-58
2023/02/26 02:28:42;;;;;;;17.95;1.77;;;2.70;99.90;;;;;;4892108;29;20253;-58
2023/02/26 02:31:18;;;;;;;12.50;2.75;;;2.70;99.90;;;;;;4924732;28;20058;-59
2023/02/26 02:33:54;;;;;;;23.40;3.25;;;2.60;99.90;;;;;;4918416;29;20059;-59
2023/02/26 02:36:37;;;;;;;7.68;3.22;;;2.70;99.90;;;;;;4922525;28;20055;-59
2023/02/26 02:39:10;;;;;;;9.90;1.88;;;2.60;99.90;;;;;;4947667;28;20074;-56
2023/02/26 02:41:39;;;;;;;8.82;1.73;;;2.70;99.90;;;;;;4929356;28;20051;-58
2023/02/26 02:44:07;;;;;;;15.13;2.28;;;2.70;99.90;;;;;;4936932;29;20051;-59
2023/02/26 02:46:36;;;;;;;15.50;2.85;;;2.60;99.90;;;;;;4936676;29;20511;-60
2023/02/26 02:49:06;;;;;;;9.48;1.42;;;2.60;99.90;;;;;;4936760;29;20150;-59
2023/02/26 02:51:39;;;;;;;9.05;1.38;;;2.60;99.90;;;;;;4933421;28;20077;-61
2023/02/26 02:54:20;;;;;;;11.93;1.52;;;2.60;99.90;;;;;;4950358;29;20054;-58
2023/02/26 02:57:12;;;;;;;9.77;1.45;;;2.60;99.90;;;;;;4965197;28;20043;-59
2023/02/26 02:59:44;;;;;;;28.08;2.45;;;2.70;99.90;;;;;;4936659;29;20047;-59
2023/02/26 03:02:17;;;;;;;13.13;1.83;;;2.70;99.90;;;;;;4944725;28;20066;-59
2023/02/26 03:04:44;;;;;;;13.75;1.58;;;2.60;99.90;;;;;;4948148;29;20127;-58
2023/02/26 03:07:11;;;;;;;10.25;2.47;;;2.70;99.90;;;;;;4934270;29;20055;-59
2023/02/26 03:09:37;;;;;;;12.48;2.85;;;2.60;99.90;;;;;;4931252;29;20054;-59
2023/02/26 03:12:04;;;;;;;6.65;1.70;;;2.60;99.90;;;;;;4927664;29;20083;-59
2023/02/26 03:14:31;;;;;;;12.77;2.55;;;2.60;99.90;;;;;;4926705;29;20137;-59
2023/02/26 03:17:07;;;;;;;7.18;1.85;;;2.60;99.90;;;;;;4930909;29;20047;-59
2023/02/26 03:20:04;;;;;;;8.57;1.90;;;2.60;99.90;;;;;;4932216;29;20061;-59
2023/02/26 03:22:42;;;;;;;10.40;2.10;;;2.60;99.90;;;;;;4919311;29;20048;-59
2023/02/26 03:25:13;;;;;;;11.75;1.80;;;2.60;99.90;;;;;;4919134;29;20048;-59
2023/02/26 03:27:52;;;;;;;9.77;1.58;;;2.70;99.90;;;;;;4929377;29;20051;-58
2023/02/26 03:30:34;;;;;;;18.58;2.58;;;2.70;99.90;;;;;;4929619;29;20115;-60
2023/02/26 03:33:23;;;;;;;19.42;4.30;;;2.70;99.90;;;;;;4904511;29;20051;-59
2023/02/26 03:36:06;;;;;;;9.65;2.58;;;2.80;99.90;;;;;;4918153;29;20054;-59
2023/02/26 03:38:41;;;;;;;19.67;2.92;;;2.80;99.90;;;;;;4913961;29;20131;-58
2023/02/26 03:41:13;;;;;;;7.78;2.85;;;2.90;99.90;;;;;;4910141;29;20318;-58
2023/02/26 03:43:42;;;;;;;17.90;2.72;;;2.90;99.90;;;;;;4927224;29;20136;-58
2023/02/26 03:46:11;;;;;;;9.63;1.70;;;2.90;99.90;;;;;;4927107;29;20491;-59
2023/02/26 03:48:37;;;;;;;9.93;2.33;;;2.90;99.90;;;;;;4914188;29;20506;-59
2023/02/26 03:51:08;;;;;;;11.15;2.20;;;3.00;99.90;;;;;;4925972;29;20064;-58
2023/02/26 03:53:51;;;;;;;12.75;2.03;;;3.00;99.90;;;;;;4928944;29;20078;-58
2023/02/26 03:56:52;;;;;;;9.60;1.83;;;3.00;99.90;;;;;;4911015;29;20047;-59
2023/02/26 03:59:19;;;;;;;6.53;2.65;;;3.10;99.90;;;;;;4911864;29;20086;-58
2023/02/26 04:01:59;;;;;;;10.50;2.03;;;3.10;99.90;;;;;;4922760;29;20044;-58
2023/02/26 04:04:31;;;;;;;12.75;2.00;;;3.10;99.90;;;;;;4915869;29;20052;-58
2023/02/26 04:06:58;;;;;;;9.32;1.75;;;3.20;99.90;;;;;;4960097;28;20601;-59
2023/02/26 04:09:25;;;;;;;12.98;2.78;;;3.20;99.90;;;;;;4923390;29;20059;-58
2023/02/26 04:11:52;;;;;;;13.85;1.88;;;3.30;99.90;;;;;;4928094;29;20051;-59
2023/02/26 04:14:19;;;;;;;10.68;2.28;;;3.30;99.90;;;;;;4924443;29;20048;-59
2023/02/26 04:16:45;;;;;;;16.80;3.03;;;3.30;99.90;;;;;;4925351;29;20058;-58
2023/02/26 04:19:13;;;;;;;23.38;5.68;;;3.30;99.90;;;;;;4927765;29;20048;-58
2023/02/26 04:21:39;;;;;;;10.50;1.95;;;3.40;99.90;;;;;;4921514;29;20054;-59
2023/02/26 04:24:06;;;;;;;8.52;2.22;;;3.40;99.90;;;;;;4922954;29;20059;-57
2023/02/26 04:26:33;;;;;;;9.05;1.42;;;3.40;99.90;;;;;;4936552;29;20078;-58
2023/02/26 04:28:59;;;;;;;5.88;1.60;;;3.40;99.90;;;;;;4927506;29;20048;-59
2023/02/26 04:31:26;;;;;;;15.45;1.92;;;3.40;99.90;;;;;;4917737;29;20079;-57
2023/02/26 04:33:53;;;;;;;6.97;2.45;;;3.50;99.90;;;;;;4921713;29;20055;-58
2023/02/26 04:36:20;;;;;;;22.20;2.40;;;3.50;99.90;;;;;;4917224;29;20123;-59
2023/02/26 04:38:47;;;;;;;10.13;2.53;;;3.50;99.90;;;;;;4929631;29;20048;-58
2023/02/26 04:41:13;;;;;;;10.25;1.38;;;3.50;99.90;;;;;;4915832;29;20493;-59
2023/02/26 04:43:40;;;;;;;6.35;1.50;;;3.50;99.90;;;;;;4928456;29;20054;-59
2023/02/26 04:46:07;;;;;;;8.15;3.33;;;3.50;99.90;;;;;;4925504;29;20512;-59
2023/02/26 04:48:34;;;;;;;16.48;2.40;;;3.50;99.90;;;;;;4940402;29;20058;-59
2023/02/26 04:51:00;;;;;;;6.68;1.85;;;3.60;99.90;;;;;;4913931;29;20052;-59
2023/02/26 04:53:27;;;;;;;7.70;1.35;;;3.60;99.90;;;;;;4926133;29;20044;-57
2023/02/26 04:55:54;;;;;;;10.68;2.28;;;3.60;99.90;;;;;;4922477;29;20107;-59
2023/02/26 04:58:21;;;;;;;12.00;2.45;;;3.60;99.90;;;;;;4925414;29;20044;-58
2023/02/26 05:00:49;;;;;;;12.05;2.13;;;3.60;99.90;;;;;;4915637;29;20052;-58
2023/02/26 05:03:16;;;;;;;12.80;2.72;;;3.50;99.90;;;;;;4924662;29;20067;-57
2023/02/26 05:05:43;;;;;;;12.00;1.70;;;3.60;99.90;;;;;;4926704;29;20105;-59
2023/02/26 05:08:09;;;;;;;9.70;2.13;;;3.60;99.90;;;;;;4940836;28;20131;-59
2023/02/26 05:10:36;;;;;;;5.15;1.40;;;3.50;99.90;;;;;;4912812;29;20139;-59
2023/02/26 05:13:03;;;;;;;15.35;2.40;;;3.50;99.90;;;;;;4919985;29;20058;-58
2023/02/26 05:15:29;;;;;;;9.05;1.40;;;3.40;99.90;;;;;;4919403;29;20048;-60
2023/02/26 05:17:56;;;;;;;8.43;1.50;;;3.40;99.90;;;;;;4933057;28;20047;-59
2023/02/26 05:20:23;;;;;;;16.27;2.85;;;3.40;99.90;;;;;;4931906;29;20051;-61
2023/02/26 05:22:50;;;;;;;11.70;2.63;;;3.40;99.90;;;;;;4926113;29;20058;-62
2023/02/26 05:25:16;;;;;;;14.18;2.08;;;3.90;99.90;;;;;;4921766;29;20127;-59
2023/02/26 05:27:43;;;;;;;13.07;1.95;;;3.40;99.90;;;;;;4920141;29;20056;-59
2023/02/26 05:30:12;;;;;;;22.55;1.95;;;3.40;99.90;;;;;;4917573;29;20052;-59
2023/02/26 05:32:38;;;;;;;11.23;1.55;;;3.50;99.90;;;;;;4920596;29;20050;-60
2023/02/26 05:35:05;;;;;;;9.93;1.88;;;3.50;99.90;;;;;;4928326;29;20051;-58
2023/02/26 05:37:32;;;;;;;7.43;1.70;;;3.50;99.90;;;;;;4917647;29;20479;-59
2023/02/26 05:39:59;;;;;;;12.75;3.50;;;3.40;99.90;;;;;;4926389;29;20052;-59
2023/02/26 05:42:26;;;;;;;11.85;2.00;;;3.50;99.90;;;;;;4920552;29;20087;-59
2023/02/26 05:44:52;;;;;;;14.77;1.70;;;3.50;99.90;;;;;;4929984;29;20050;-58
2023/02/26 05:47:19;;;;;;;11.13;1.48;;;3.50;99.90;;;;;;4912801;29;20052;-58
2023/02/26 05:49:46;;;;;;;12.82;2.58;;;3.50;99.90;;;;;;4918623;29;20052;-59
2023/02/26 05:52:12;;;;;;;16.60;1.83;;;3.50;99.90;;;;;;4918722;29;20052;-57
2023/02/26 05:54:39;;;;;;;16.02;2.08;;;3.50;99.90;;;;;;4928583;29;20039;-58
2023/02/26 05:57:06;;;;;;;11.35;1.88;;;3.50;99.90;;;;;;4928711;29;20060;-58
2023/02/26 05:59:33;;;;;;;12.05;1.90;;;3.40;99.90;;;;;;4926021;29;20272;-58
2023/02/26 06:01:59;;;;;;;16.85;1.88;;;3.40;99.90;;;;;;4916112;29;20139;-56
2023/02/26 06:04:26;;;;;;;11.70;1.98;;;3.40;99.90;;;;;;4923724;29;20048;-57
2023/02/26 06:06:53;;;;;;;19.52;2.65;;;3.30;99.90;;;;;;4942150;29;20055;-58
2023/02/26 06:09:19;;;;;;;15.32;2.28;;;3.30;99.90;;;;;;4946727;28;20113;-60
2023/02/26 06:11:46;;;;;;;12.10;1.52;;;3.20;99.90;;;;;;4943776;29;20053;-59
2023/02/26 06:14:13;;;;;;;14.32;2.47;;;3.20;99.90;;;;;;4937941;28;20566;-58
2023/02/26 06:16:42;;;;;;;19.88;3.22;;;3.20;99.90;;;;;;4942975;29;20098;-59
2023/02/26 06:19:09;;;;;;;13.23;2.35;;;3.10;99.90;;;;;;4947357;28;20055;-58
2023/02/26 06:21:36;;;;;;;10.98;1.67;;;3.20;99.90;;;;;;4945438;29;20051;-58
2023/02/26 06:24:03;;;;;;;8.65;1.20;;;3.10;99.90;;;;;;4936030;28;20135;-59
2023/02/26 06:26:29;;;;;;;11.10;3.85;;;3.20;99.90;;;;;;4938488;29;20103;-59
2023/02/26 06:28:56;;;;;;;16.80;2.75;;;3.40;99.90;;;;;;4947442;28;20055;-57
2023/02/26 06:31:23;;;;;;;10.38;1.40;;;3.10;99.90;;;;;;4947613;29;20131;-58
2023/02/26 06:33:50;;;;;;;14.88;2.13;;;3.10;99.90;;;;;;4951167;28;20294;-57
2023/02/26 06:36:16;;;;;;;7.90;1.40;;;3.10;99.90;;;;;;4936609;29;20134;-57
2023/02/26 06:38:44;;;;;;;18.75;2.15;;;3.10;99.90;;;;;;4927289;29;20051;-58
2023/02/26 06:41:11;;;;;;;4.22;1.17;;;3.20;99.90;;;;;;4945681;29;20049;-58
2023/02/26 06:43:37;;;;;;;8.43;2.30;;;3.20;99.90;;;;;;4950254;28;20055;-55
2023/02/26 06:46:04;;;;;;;9.65;1.92;;;3.20;99.90;;;;;;4935996;29;20178;-54
2023/02/26 06:48:32;;;;;;;3.22;1.20;;;3.10;99.90;;;;;;4929994;29;20047;-58
2023/02/26 06:50:58;;;;;;;19.95;1.92;;;3.10;99.90;;;;;;4943675;29;20516;-58
2023/02/26 06:53:25;;;;;;;15.07;2.50;;;3.00;99.90;;;;;;4943978;28;20387;-59
2023/02/26 06:55:52;;;;;;;5.97;1.23;;;3.00;99.90;;;;;;4937843;29;20074;-57
2023/02/26 06:58:19;;;;;;;9.23;1.73;;;2.90;99.90;;;;;;4950290;28;20069;-58
2023/02/26 07:00:45;;;;;;;11.43;1.67;;;2.80;99.90;;;;;;4944157;29;20430;-58
2023/02/26 07:03:14;;;;;;;14.23;1.85;;;2.90;99.90;;;;;;4946779;28;20126;-57
2023/02/26 07:05:41;;;;;;;11.88;2.80;;;2.90;99.90;;;;;;4939034;28;20055;-55
2023/02/26 07:08:08;;;;;;;9.52;1.65;;;2.90;99.90;;;;;;4953491;28;20047;-55
2023/02/26 07:10:35;;;;;;;10.70;2.63;;;2.90;99.90;;;;;;4956597;28;20443;-57
2023/02/26 07:13:02;;;;;;;11.88;2.05;;;2.80;99.90;;;;;;4939671;28;20047;-57
2023/02/26 07:15:28;;;;;;;6.53;1.90;;;2.90;99.90;;;;;;4937472;29;20491;-59
2023/02/26 07:17:55;;;;;;;10.98;1.77;;;2.90;99.90;;;;;;4947761;28;20043;-59
2023/02/26 07:20:22;;;;;;;7.60;1.38;;;3.00;99.90;;;;;;4944982;29;20051;-59
2023/02/26 07:22:49;;;;;;;11.10;1.88;;;3.00;99.90;;;;;;4943619;29;20113;-56
2023/02/26 07:25:15;;;;;;;5.05;1.35;;;3.10;99.90;;;;;;4946442;28;20047;-56
2023/02/26 07:27:42;;;;;;;10.88;2.08;;;3.10;99.90;;;;;;4946775;29;20058;-58
2023/02/26 07:30:10;;;;;;;11.20;1.35;;;3.20;99.90;;;;;;4930899;29;20062;-57
2023/02/26 07:32:36;;;;;;;10.50;1.73;;;3.20;99.90;;;;;;4926708;29;20054;-58
2023/02/26 07:35:04;;;;;;;10.93;1.63;;;3.20;99.90;;;;;;4953647;28;20429;-59
2023/02/26 07:37:30;;;;;;;3.92;1.33;;;3.20;99.90;;;;;;4944858;29;20051;-58
2023/02/26 07:39:58;;;;;;;14.77;2.63;;;3.20;99.90;;;;;;4949109;28;20054;-57
2023/02/26 07:42:24;;;;;;;9.57;1.55;;;3.20;99.90;;;;;;4936383;29;20051;-57
2023/02/26 07:44:51;;;;;;;7.05;2.80;;;3.20;99.90;;;;;;4933235;29;20309;-58
2023/02/26 07:47:18;;;;;;;8.30;2.30;;;3.30;99.90;;;;;;4943495;28;20057;-58
2023/02/26 07:49:45;;;;;;;20.60;2.28;;;3.30;99.90;;;;;;4949003;28;20491;-58
2023/02/26 07:52:11;;;;;;;11.57;1.60;;;3.30;99.90;;;;;;4933041;29;20051;-58
2023/02/26 07:54:38;;;;;;;14.23;1.90;;;3.30;99.90;;;;;;4947471;28;20389;-60
2023/02/26 07:57:05;;;;;;;13.20;2.33;;;3.30;99.90;;;;;;4942912;29;20054;-59
2023/02/26 07:59:32;;;;;;;9.40;1.70;;;3.20;99.90;;;;;;4602043;28;10000777;-59
2023/02/26 08:01:58;;;;;;;13.75;1.80;;;3.30;99.90;;;;;;4936340;28;20055;-57
2023/02/26 08:04:25;;;;;;;13.52;2.08;;;3.30;99.90;;;;;;4939582;28;20592;-58
2023/02/26 08:06:56;;;;;;;9.32;1.63;;;3.30;99.90;;;;;;4953975;28;20054;-58
2023/02/26 08:09:22;;;;;;;10.02;2.38;;;3.30;99.90;;;;;;4939646;28;20565;-57
2023/02/26 08:11:49;;;;;;;9.95;2.15;;;3.30;99.90;;;;;;4946686;28;20566;-59
2023/02/26 08:14:16;;;;;;;11.43;1.73;;;3.30;99.90;;;;;;4943837;28;20118;-59
2023/02/26 08:16:43;;;;;;;8.57;1.98;;;3.30;99.90;;;;;;4941483;29;20054;-59
2023/02/26 08:19:09;;;;;;;18.38;3.83;;;3.40;99.90;;;;;;4946512;28;20059;-58
2023/02/26 08:21:36;;;;;;;13.10;2.28;;;3.40;99.90;;;;;;4946905;29;20134;-58
2023/02/26 08:24:03;;;;;;;5.63;1.35;;;3.40;99.90;;;;;;4921893;29;20058;-59
2023/02/26 08:26:30;;;;;;;8.43;2.38;;;3.50;99.90;;;;;;4935240;29;21000;-59
2023/02/26 08:28:56;;;;;;;7.00;1.90;;;3.60;99.90;;;;;;4932601;28;20057;-59
2023/02/26 08:31:24;;;;;;;9.60;1.58;;;3.60;99.90;;;;;;4943170;29;20062;-60
2023/02/26 08:33:51;;;;;;;13.52;2.53;;;3.60;99.90;;;;;;4936917;28;20055;-59
2023/02/26 08:36:18;;;;;;;12.80;3.50;;;3.60;99.90;;;;;;4945025;29;20123;-59
2023/02/26 08:38:44;;;;;;;8.07;1.45;;;3.70;99.90;;;;;;4950807;28;20055;-59
2023/02/26 08:41:11;;;;;;;12.50;1.75;;;3.70;99.90;;;;;;4941535;29;20052;-59
2023/02/26 08:43:41;;;;;;;8.52;1.83;;;3.80;99.90;;;;;;4937853;28;20062;-60
2023/02/26 08:46:08;;;;;;;12.00;1.35;;;3.90;99.90;;;;;;4941261;29;20079;-60
2023/02/26 08:48:35;;;;;;;13.73;1.75;;;3.90;99.90;;;;;;4929374;28;20051;-60
2023/02/26 08:51:01;;;;;;;11.20;1.48;;;4.00;99.90;;;;;;4936241;28;20530;-59
2023/02/26 08:53:31;;;;;;;10.25;2.60;;;4.10;99.90;;;;;;4948544;28;20065;-61
2023/02/26 08:55:57;;;;;;;12.93;2.92;;;4.20;99.90;;;;;;4938365;28;20039;-65
2023/02/26 08:58:24;;;;;;;5.88;1.27;;;4.70;99.90;;;;;;4945372;29;20050;-59
2023/02/26 09:00:51;;;;;;;18.30;2.15;;;4.70;99.90;;;;;;4922906;29;20485;-61
2023/02/26 09:03:18;;;;;;;6.97;1.50;;;4.70;99.90;;;;;;4916564;29;20246;-59
2023/02/26 09:05:44;;;;;;;7.97;1.38;;;4.80;99.90;;;;;;4941890;28;20055;-59
2023/02/26 09:08:14;;;;;;;13.50;2.42;;;5.00;99.90;;;;;;4939923;28;20054;-58
2023/02/26 09:10:41;;;;;;;6.70;1.25;;;5.20;99.90;;;;;;4943496;28;20043;-59
2023/02/26 09:13:08;;;;;;;10.73;1.95;;;5.30;99.90;;;;;;4940457;29;20148;-59
2023/02/26 09:15:34;;;;;;;13.65;1.30;;;5.60;99.90;;;;;;4937533;28;20077;-59
2023/02/26 09:18:01;;;;;;;6.45;1.23;;;5.90;99.90;;;;;;4928060;29;20526;-60
2023/02/26 09:20:28;;;;;;;9.52;1.67;;;6.10;99.90;;;;;;4944407;28;20062;-57
2023/02/26 09:22:54;;;;;;;10.00;1.98;;;6.40;99.90;;;;;;4924454;29;20059;-60
2023/02/26 09:25:22;;;;;;;11.45;1.70;;;6.60;99.90;;;;;;4933389;28;20048;-60
2023/02/26 09:27:49;;;;;;;8.15;2.17;;;6.90;99.90;;;;;;4939403;29;20047;-60
2023/02/26 09:30:16;;;;;;;5.75;1.40;;;7.10;99.90;;;;;;4944125;28;20051;-59
2023/02/26 09:32:43;;;;;;;19.38;2.40;;;7.20;99.90;;;;;;4928809;29;20059;-57
2023/02/26 09:35:10;;;;;;;10.57;1.67;;;7.40;99.90;;;;;;4947011;28;20075;-59
2023/02/26 09:37:37;;;;;;;9.80;1.77;;;7.20;99.90;;;;;;4941129;28;20055;-60
2023/02/26 09:40:04;;;;;;;12.63;1.60;;;7.00;99.90;;;;;;4942933;28;20503;-60
2023/02/26 09:42:51;;;;;;;15.38;1.70;;;6.80;99.90;;;;;;4944480;29;20411;-59
2023/02/26 09:45:25;;;;;;;14.02;1.67;;;6.60;99.90;;;;;;4963063;28;20086;-62
2023/02/26 09:47:52;;;;;;;12.75;1.80;;;6.60;99.90;;;;;;4925198;29;20106;-59
2023/02/26 09:50:29;;;;;;;7.53;1.20;;;6.60;99.90;;;;;;4912566;29;20083;-58
2023/02/26 09:53:01;;;;;;;12.27;1.40;;;6.40;99.90;;;;;;4948256;28;20047;-58
2023/02/26 09:55:42;;;;;;;8.23;1.35;;;6.30;99.90;;;;;;4928910;29;20054;-59
2023/02/26 09:58:26;;;;;;;13.63;3.92;;;6.20;99.90;;;;;;4911774;29;20086;-59
2023/02/26 10:01:16;;;;;;;5.68;1.05;;;6.10;99.90;;;;;;4913332;29;20090;-59
2023/02/26 10:04:18;;;;;;;9.80;2.13;;;6.10;99.90;;;;;;4923365;29;20102;-59
2023/02/26 10:06:58;;;;;;;8.45;2.92;;;6.10;99.90;;;;;;4926398;28;20055;-60
2023/02/26 10:09:40;;;;;;;16.02;2.78;;;6.00;99.90;;;;;;4926230;28;20305;-61
2023/02/26 10:12:12;;;;;;;15.80;1.70;;;6.00;99.90;;;;;;4937050;29;20055;-60
2023/02/26 10:14:48;;;;;;;12.43;1.83;;;6.00;99.90;;;;;;4936351;28;20055;-59
2023/02/26 10:17:19;;;;;;;12.75;1.95;;;5.90;99.90;;;;;;4911093;29;20051;-59
2023/02/26 10:19:48;;;;;;;8.07;2.03;;;5.90;99.90;;;;;;4928782;28;20151;-60
2023/02/26 10:22:36;;;;;;;11.43;1.38;;;5.80;99.90;;;;;;4939595;29;20059;-58
2023/02/26 10:25:14;;;;;;;11.57;1.50;;;5.80;99.90;;;;;;4942712;28;20503;-63
2023/02/26 10:28:00;;;;;;;7.75;1.50;;;5.90;99.90;;;;;;4912419;29;20144;-61
2023/02/26 10:31:03;;;;;;;9.48;1.38;;;5.90;99.90;;;;;;4949190;28;20086;-60
2023/02/26 10:33:49;;;;;;;20.73;2.72;;;6.00;99.90;;;;;;4894888;29;20078;-58
2023/02/26 10:36:23;;;;;;;13.07;2.30;;;6.00;99.90;;;;;;4942630;28;20058;-60
2023/02/26 10:38:53;;;;;;;9.23;1.58;;;6.10;99.90;;;;;;4921380;29;20043;-60
2023/02/26 10:41:22;;;;;;;9.80;1.33;;;6.10;99.90;;;;;;4911311;29;20125;-59
2023/02/26 10:43:55;;;;;;;6.63;1.23;;;6.20;99.90;;;;;;4919839;29;20097;-58
2023/02/26 10:46:52;;;;;;;7.53;1.17;;;6.20;99.90;;;;;;4930661;29;20043;-59
2023/02/26 10:49:42;;;;;;;14.68;1.58;;;6.30;99.90;;;;;;4939300;29;20055;-59
2023/02/26 10:52:38;;;;;;;5.95;1.20;;;6.40;99.90;;;;;;4930270;29;20048;-60
2023/02/26 10:55:13;;;;;;;8.60;1.35;;;6.40;99.90;;;;;;4939626;28;20142;-60
2023/02/26 10:57:43;;;;;;;10.77;2.20;;;6.50;99.90;;;;;;4928203;29;20726;-60
2023/02/26 11:00:15;;;;;;;9.70;2.38;;;6.60;99.90;;;;;;4933705;28;20070;-59
2023/02/26 11:02:44;;;;;;;10.45;2.05;;;6.70;99.90;;;;;;4939047;28;20055;-60
2023/02/26 11:05:19;;;;;;;7.75;1.30;;;6.80;99.90;;;;;;4909450;29;20058;-58
2023/02/26 11:07:47;;;;;;;10.07;2.22;;;6.90;99.90;;;;;;4942444;29;20372;-57
2023/02/26 11:10:19;;;;;;;6.47;0.80;;;6.90;99.90;;;;;;4921073;29;20408;-59
2023/02/26 11:12:46;;;;;;;6.82;1.48;;;7.00;99.90;;;;;;4925631;29;20048;-58
2023/02/26 11:15:17;;;;;;;8.77;1.23;;;7.00;99.90;;;;;;4937087;28;20145;-58
2023/02/26 11:17:46;;;;;;;3.58;0.90;;;7.10;99.90;;;;;;4938810;29;20090;-58
2023/02/26 11:20:20;;;;;;;7.90;0.90;;;7.10;99.90;;;;;;4921396;29;20536;-58
2023/02/26 11:22:52;;;;;;;5.75;0.98;;;7.10;99.90;;;;;;4907267;29;20498;-58
2023/02/26 11:25:22;;;;;;;4.90;0.95;;;7.20;99.90;;;;;;4917390;29;20079;-58
2023/02/26 11:28:00;;;;;;;9.85;3.05;;;7.20;99.90;;;;;;4938407;29;20056;-58
2023/02/26 11:30:29;;;;;;;11.05;2.22;;;7.10;98.70;;;;;;4939316;28;20077;-59
2023/02/26 11:32:57;;;;;;;3.78;1.60;;;7.20;99.90;;;;;;4939186;29;20116;-58
2023/02/26 11:35:25;;;;;;;6.85;0.93;;;7.20;99.90;;;;;;4936699;28;20513;-58
2023/02/26 11:37:54;;;;;;;3.90;1.33;;;7.10;99.30;;;;;;4893211;29;20054;-60
2023/02/26 11:40:23;;;;;;;6.53;1.23;;;7.10;99.20;;;;;;4931257;28;20421;-58
2023/02/26 11:42:52;;;;;;;10.23;1.20;;;7.00;99.90;;;;;;4938539;29;20802;-60
2023/02/26 11:45:19;;;;;;;9.60;1.10;;;6.90;98.70;;;;;;4953970;28;20051;-58
2023/02/26 11:47:47;;;;;;;3.28;0.70;;;6.90;99.90;;;;;;4929544;29;20043;-57
2023/02/26 11:50:21;;;;;;;3.40;0.77;;;6.90;99.40;;;;;;4900729;29;20167;-59
2023/02/26 11:52:55;;;;;;;;;;;7.00;99.90;;;;;;4927269;29;20051;-59
2023/02/26 11:55:36;;;;;;;3.80;1.00;;;7.00;97.10;;;;;;4941477;28;20020;-58
2023/02/26 11:58:13;;;;;;;5.38;1.05;;;7.10;99.90;;;;;;4925368;29;20051;-58
2023/02/26 12:00:40;;;;;;;4.20;1.25;;;7.20;99.90;;;;;;4925824;29;20050;-58
2023/02/26 12:03:30;;;;;;;8.07;0.82;;;7.30;99.80;;;;;;4943690;29;20411;-58
2023/02/26 12:05:58;;;;;;;4.47;1.20;;;7.30;99.90;;;;;;4929065;29;20055;-58
2023/02/26 12:08:37;;;;;;;8.85;1.40;;;7.30;99.90;;;;;;4925664;29;20494;-58
2023/02/26 12:11:12;;;;;;;15.65;1.55;;;7.40;99.90;;;;;;4943955;28;20051;-58
2023/02/26 12:14:01;;;;;;;9.90;1.63;;;7.50;99.80;;;;;;4943588;29;20166;-56
2023/02/26 12:17:10;;;;;;;12.77;1.55;;;7.50;99.90;;;;;;4942777;28;20087;-59
2023/02/26 12:19:56;;;;;;;9.82;1.52;;;7.50;99.90;;;;;;4872741;29;20048;-60
2023/02/26 12:22:34;;;;;;;6.57;1.08;;;7.50;99.90;;;;;;4939687;29;20051;-59
2023/02/26 12:25:26;;;;;;;6.25;1.88;;;7.60;99.90;;;;;;4925939;29;20055;-59
2023/02/26 12:28:13;;;;;;;6.10;1.23;;;7.70;99.90;;;;;;4941917;28;20962;-59
2023/02/26 12:30:58;;;;;;;5.25;1.33;;;7.80;99.90;;;;;;4940220;29;20052;-60
2023/02/26 12:33:44;;;;;;;7.95;1.48;;;7.90;99.90;;;;;;4941384;28;20062;-59
2023/02/26 12:36:29;;;;;;;8.65;1.48;;;7.90;99.90;;;;;;4937250;29;20113;-58
2023/02/26 12:39:19;;;;;;;11.35;1.98;;;7.80;99.90;;;;;;4942609;29;20482;-65
2023/02/26 12:41:51;;;;;;;10.15;1.30;;;7.70;99.90;;;;;;4921866;28;20151;-60
2023/02/26 12:44:36;;;;;;;11.52;1.90;;;7.60;99.90;;;;;;4926248;29;20055;-58
2023/02/26 12:47:14;;;;;;;6.38;1.20;;;7.30;99.90;;;;;;4924418;28;20052;-59
2023/02/26 12:49:50;;;;;;;7.85;1.77;;;7.00;99.90;;;;;;4925953;29;20048;-59
2023/02/26 12:52:26;;;;;;;9.23;1.70;;;6.70;99.90;;;;;;4938919;28;20086;-56
2023/02/26 12:55:23;;;;;;;7.68;1.52;;;6.60;99.90;;;;;;4939135;29;20134;-58
2023/02/26 12:58:30;;;;;;;4.60;1.33;;;6.50;99.90;;;;;;4940486;28;20051;-58
2023/02/26 13:01:08;;;;;;;4.90;0.70;;;6.40;99.90;;;;;;4950378;28;20526;-58
2023/02/26 13:03:44;;;;;;;4.95;1.05;;;6.40;99.90;;;;;;4926559;29;20051;-59
2023/02/26 13:06:44;;;;;;;4.50;1.00;;;6.30;99.90;;;;;;4926304;29;20107;-56
2023/02/26 13:09:33;;;;;;;6.57;1.10;;;6.30;99.90;;;;;;4906905;29;20456;-59
2023/02/26 13:12:08;;;;;;;6.57;1.33;;;6.40;99.90;;;;;;4925987;29;20067;-58
2023/02/26 13:15:12;;;;;;;3.78;0.95;;;6.30;99.90;;;;;;4927209;29;20130;-58
2023/02/26 13:18:01;;;;;;;3.30;0.80;;;6.30;99.90;;;;;;4908857;29;20488;-57